Data for 09/14/2007

Time Sea-Level Adjusted Pressure Absolute Pressure Temperature Relative Humidity Dew Point   
(mb) (inHg) (mb) (inHg) (C) (F) (%) (C) (F)
00:05 1022 30.18 852 25.16 9.7 49.5 42 -2.7 27.2
00:10 1022 30.18 852 25.16 9.6 49.2 42 -2.7 27.2
00:15 1022 30.18 852 25.16 9.5 49.1 42 -2.9 26.9
00:20 1022 30.18 852 25.16 9.6 49.2 41 -2.9 26.8
00:25 1022 30.18 852 25.16 9.6 49.2 41 -2.9 26.8
00:30 1022 30.18 852 25.16 9.6 49.2 41 -3.1 26.4
00:35 1022 30.18 851 25.13 9.7 49.4 40 -3.2 26.2
00:40 1022 30.18 851 25.13 9.7 49.4 40 -3.2 26.3
00:45 1022 30.18 852 25.16 9.6 49.3 40 -3.2 26.3
00:50 1022 30.18 852 25.16 9.5 49 41 -3.2 26.3
00:55 1022 30.18 852 25.16 9.3 48.8 41 -3.3 26
01:00 1022 30.18 851 25.13 9.3 48.7 40 -3.4 25.8
01:05 1022 30.18 851 25.13 9.2 48.5 41 -3.3 26
01:10 1022 30.18 851 25.13 9.1 48.4 41 -3.4 26
01:15 1022 30.18 851 25.13 9.1 48.3 41 -3.4 25.9
01:20 1022 30.18 851 25.13 9 48.2 41 -3.4 25.9
01:25 1022 30.18 851 25.13 9 48.1 42 -3.4 25.9
01:30 1022 30.18 851 25.13 8.9 48 42 -3.4 25.9
01:35 1022 30.18 851 25.13 8.9 48 42 -3.5 25.8
01:40 1022 30.18 851 25.13 8.9 47.9 41 -3.5 25.7
01:45 1022 30.18 851 25.13 8.8 47.8 42 -3.5 25.8
01:50 1022 30.18 851 25.13 8.7 47.7 42 -3.4 25.9
01:55 1022 30.18 851 25.13 8.7 47.6 42 -3.4 25.9
02:00 1022 30.18 851 25.13 8.6 47.4 42 -3.4 25.8
02:05 1022 30.18 851 25.13 8.6 47.4 42 -3.5 25.7
02:10 1022 30.18 851 25.13 8.5 47.3 43 -3.4 25.9
02:15 1022 30.18 851 25.13 8.4 47.2 43 -3.4 25.9
02:20 1022 30.18 851 25.13 8.4 47 43 -3.4 25.8
02:25 1022 30.18 851 25.13 8.3 46.9 44 -3.3 26
02:30 1022 30.18 851 25.13 8.2 46.7 44 -3.3 26
02:35 1022 30.18 851 25.13 8.1 46.5 44 -3.3 26
02:40 1022 30.18 851 25.13 8 46.3 44 -3.4 25.8
02:45 1022 30.18 851 25.13 8 46.3 44 -3.4 25.9
02:50 1022 30.18 851 25.13 7.9 46.3 45 -3.3 26
02:55 1022 30.18 851 25.13 7.9 46.3 45 -3.4 25.9
03:00 1022 30.18 851 25.13 7.9 46.2 44 -3.5 25.7
03:05 1022 30.18 851 25.13 7.9 46.1 45 -3.4 25.9
03:10 1022 30.18 851 25.13 7.7 45.9 45 -3.5 25.7
03:15 1022 30.18 851 25.13 7.7 45.8 45 -3.6 25.5
03:20 1022 30.18 851 25.13 7.6 45.8 45 -3.6 25.6
03:25 1022 30.18 851 25.13 7.6 45.7 45 -3.5 25.6
03:30 1022 30.18 851 25.13 7.6 45.6 45 -3.6 25.6
03:35 1022 30.18 851 25.13 7.5 45.6 45 -3.6 25.6
03:40 1022 30.18 851 25.13 7.5 45.4 46 -3.5 25.7
03:45 1022 30.18 851 25.13 7.4 45.4 46 -3.5 25.7
03:50 1022 30.18 851 25.13 7.4 45.3 46 -3.4 25.8
03:55 1022 30.18 851 25.13 7.3 45.1 46 -3.5 25.8
04:00 1022 30.18 851 25.13 7.2 45 47 -3.4 25.8
04:05 1022 30.18 851 25.13 7.1 44.8 47 -3.5 25.7
04:10 1022 30.18 851 25.13 7.1 44.8 47 -3.4 25.8
04:15 1022 30.18 851 25.13 7 44.6 47 -3.4 25.9
04:20 1022 30.18 851 25.13 7 44.5 47 -3.4 25.8
04:25 1022 30.18 851 25.13 7 44.6 47 -3.5 25.8
04:30 1022 30.18 851 25.13 7 44.6 47 -3.4 25.8
04:35 1022 30.18 851 25.13 6.9 44.4 48 -3.3 26
04:40 1022 30.18 851 25.13 6.8 44.3 48 -3.4 25.9
04:45 1022 30.18 851 25.13 6.9 44.4 48 -3.4 26
04:50 1022 30.18 851 25.13 6.9 44.4 48 -3.2 26.2
04:55 1022 30.18 851 25.13 6.8 44.3 48 -3.3 26.1
05:00 1022 30.18 851 25.13 6.8 44.2 48 -3.4 25.9
05:05 1022 30.18 851 25.13 6.8 44.2 49 -3.3 26
05:10 1022 30.18 851 25.13 6.7 44 49 -3.3 26.1
05:15 1022 30.18 851 25.13 6.6 43.9 49 -3.4 25.8
05:20 1022 30.18 851 25.13 6.7 44.1 48 -3.4 25.8
05:25 1022 30.18 851 25.13 6.7 44.1 49 -3.3 26
05:30 1022 30.18 851 25.13 6.7 44 49 -3.3 26
05:35 1022 30.18 851 25.13 6.7 44 49 -3.2 26.2
05:40 1022 30.18 851 25.13 6.7 44 49 -3.3 26.1
05:45 1022 30.18 851 25.13 6.7 44.1 49 -3.3 26.1
05:50 1022 30.18 851 25.13 6.8 44.2 49 -3.2 26.3
05:55 1022 30.18 851 25.13 6.7 44 50 -3 26.6
06:00 1022 30.18 851 25.13 6.6 43.8 50 -3 26.5
06:05 1022 30.18 851 25.13 6.5 43.7 50 -3.2 26.3
06:10 1022 30.18 851 25.13 6.5 43.8 50 -3.1 26.4
06:15 1022 30.18 851 25.13 6.5 43.8 50 -3 26.6
06:20 1022 30.18 851 25.13 6.5 43.7 51 -3 26.6
06:25 1022 30.18 851 25.13 6.5 43.6 51 -3 26.6
06:30 1022 30.18 851 25.13 6.4 43.4 51 -3 26.6
06:35 1022 30.18 851 25.13 6.2 43.1 52 -3 26.7
06:40 1022 30.18 851 25.13 6.1 42.9 53 -2.9 26.8
06:45 1022 30.18 851 25.13 6 42.7 53 -2.9 26.9
06:50 1022 30.18 851 25.13 5.9 42.7 54 -2.8 27
06:55 1022 30.18 851 25.13 5.9 42.6 54 -2.7 27.2
07:00 1022 30.18 851 25.13 5.9 42.6 54 -2.6 27.3
07:05 1022 30.18 851 25.13 5.9 42.7 54 -2.6 27.4
07:10 1022 30.18 851 25.13 6 42.9 54 -2.4 27.6
07:15 1022 30.18 851 25.13 6.1 43 54 -2.4 27.6
07:20 1022 30.18 851 25.13 6.1 43 54 -2.4 27.7
07:25 1022 30.18 851 25.13 6.2 43.1 55 -2.2 28.1
07:30 1022 30.18 851 25.13 6.1 43.1 55 -2.2 28.1
07:35 1022 30.18 851 25.13 6.1 43 55 -2.2 28
07:40 1022 30.18 851 25.13 6.1 42.9 55 -2.3 27.8
07:45 1022 30.18 851 25.13 6.1 43 55 -2.3 27.8
07:50 1022 30.18 851 25.13 6.4 43.5 52 -2.7 27.1
07:55 1022 30.18 851 25.13 6.7 44 52 -2.6 27.4
08:00 1022 30.18 851 25.13 6.9 44.4 51 -2.6 27.3
08:05 1022 30.18 851 25.13 7 44.7 50 -2.8 27
08:10 1022 30.18 851 25.13 7.2 44.9 50 -2.6 27.3
08:15 1022 30.18 851 25.13 7.3 45.1 48 -3 26.6
08:20 1022 30.18 851 25.13 7.3 45.1 48 -3 26.6
08:25 1022 30.18 851 25.13 7.3 45.2 48 -3.1 26.5
08:30 1022 30.18 851 25.13 7.4 45.4 48 -3 26.6
08:35 1022 30.18 851 25.13 7.6 45.7 48 -2.7 27.1
08:40 1022 30.18 851 25.13 7.9 46.2 47 -2.6 27.3
08:45 1022 30.18 851 25.13 8 46.5 46 -2.7 27.1
08:50 1022 30.18 851 25.13 8.1 46.6 46 -2.7 27.1
08:55 1022 30.18 851 25.13 8.3 46.9 46 -2.5 27.5
09:00 1022 30.18 851 25.13 8.5 47.2 46 -2.5 27.6
09:05 1022 30.18 851 25.13 8.6 47.5 45 -2.5 27.4
09:10 1022 30.18 851 25.13 8.9 47.9 46 -2.2 28
09:15 1022 30.18 851 25.13 9 48.2 45 -2.2 28.1
09:20 1022 30.18 851 25.13 9.1 48.3 45 -2.3 27.9
09:25 1022 30.18 851 25.13 9.3 48.7 44 -2.2 28
09:30 1022 30.18 851 25.13 9.4 48.8 44 -2.3 27.9
09:35 1022 30.18 851 25.13 9.6 49.3 44 -1.9 28.6
09:40 1022 30.18 851 25.13 9.9 49.8 44 -1.8 28.7
09:45 1021 30.15 851 25.13 10.3 50.5 43 -1.6 29.1
09:50 1021 30.15 851 25.13 10.6 51.1 43 -1.6 29.2
09:55 1021 30.15 851 25.13 11 51.8 43 -1.2 29.8
10:00 1021 30.15 851 25.13 11.3 52.4 42 -1.1 30.1
10:05 1021 30.15 851 25.13 11.3 52.4 42 -1 30.2
10:10 1021 30.15 851 25.13 11.5 52.7 42 -1 30.2
10:15 1021 30.15 850 25.1 12 53.6 41 -0.7 30.7
10:20 1021 30.15 850 25.1 12 53.6 41 -0.8 30.5
10:25 1021 30.15 850 25.1 12 53.7 41 -0.7 30.8
10:30 1021 30.15 850 25.1 12.4 54.4 41 -0.5 31.1
10:35 1021 30.15 850 25.1 12.7 54.8 39 -0.7 30.7
10:40 1021 30.15 850 25.1 13.1 55.5 40 -0.3 31.5
10:45 1021 30.15 850 25.1 13.4 56 39 -0.3 31.5
10:50 1021 30.15 850 25.1 13.6 56.4 38 -0.3 31.5
10:55 1021 30.15 850 25.1 13.8 56.9 38 -0.4 31.4
11:00 1021 30.15 850 25.1 14.2 57.6 36 -0.7 30.8
11:05 1021 30.15 850 25.1 14.4 58 35 -0.6 30.9
11:10 1021 30.15 850 25.1 15 58.9 35 -0.4 31.4
11:15 1021 30.15 850 25.1 15.3 59.5 34 -0.4 31.3
11:20 1021 30.15 850 25.1 15 59 35 -0.2 31.7
11:25 1021 30.15 850 25.1 15.4 59.7 34 -0.4 31.3
11:30 1021 30.15 850 25.1 15.7 60.3 34 -0.2 31.7
11:35 1021 30.15 850 25.1 14.9 58.8 36 0.1 32.1
11:40 1021 30.15 850 25.1 14.7 58.5 35 -0.4 31.3
11:45 1020 30.12 850 25.1 14.7 58.4 35 -0.5 31.1
11:50 1020 30.12 850 25.1 14.9 58.9 34 -0.5 31
11:55 1020 30.12 850 25.1 15.9 60.6 32 -0.6 30.9
12:00 1020 30.12 850 25.1 16.4 61.4 33 0 32
12:05 1020 30.12 850 25.1 16.3 61.3 31 -0.8 30.5
12:10 1020 30.12 850 25.1 16.8 62.2 31 -0.4 31.3
12:15 1020 30.12 849 25.07 17 62.5 31 -0.1 31.9
12:20 1020 30.12 849 25.07 16.3 61.3 33 -0 31.9
12:25 1020 30.12 849 25.07 15.9 60.5 32 -0.7 30.7
12:30 1020 30.12 849 25.07 16.4 61.4 32 -0.4 31.3
12:35 1020 30.12 849 25.07 17.1 62.8 29 -0.8 30.5
12:40 1020 30.12 849 25.07 16.2 61.1 32 -0.3 31.4
12:45 1020 30.12 849 25.07 16.2 61.1 31 -0.9 30.4
12:50 1020 30.12 849 25.07 17 62.6 29 -0.8 30.5
12:55 1020 30.12 849 25.07 16.9 62.4 32 0.2 32.3
13:00 1019 30.09 849 25.07 16.5 61.8 32 -0 31.9
13:05 1019 30.09 849 25.07 16.6 61.8 31 -0.5 31.2
13:10 1019 30.09 849 25.07 16.7 62.1 31 -0.3 31.5
13:15 1019 30.09 849 25.07 17.6 63.8 30 -0.2 31.6
13:20 1019 30.09 848 25.04 17.8 64 30 -0.1 31.9
13:25 1019 30.09 848 25.04 17.9 64.2 29 -0.2 31.6
13:30 1019 30.09 848 25.04 17.3 63.2 30 -0.1 31.8
13:35 1019 30.09 848 25.04 17.7 63.9 29 -0.5 31.1
13:40 1019 30.09 848 25.04 17.8 64.1 31 0.5 32.9
13:45 1019 30.09 848 25.04 18.6 65.4 28 -0.3 31.5
13:50 1019 30.09 848 25.04 19.1 66.4 28 0.3 32.6
13:55 1019 30.09 848 25.04 19.1 66.5 28 0.4 32.8
14:00 1019 30.09 848 25.04 19.6 67.2 27 -0 32
14:05 1019 30.09 848 25.04 20.2 68.3 27 0.6 33
14:10 1019 30.09 848 25.04 19.2 66.5 28 0.4 32.7
14:15 1019 30.09 848 25.04 19.4 66.9 27 -0.2 31.7
14:20 1018 30.06 848 25.04 19.9 67.8 26 -0 32
14:25 1018 30.06 848 25.04 20.2 68.4 26 0.1 32.2
14:30 1018 30.06 848 25.04 21.1 69.9 25 0.7 33.2
14:35 1018 30.06 848 25.04 20.8 69.5 26 1 33.8
14:40 1018 30.06 847 25.01 20 67.9 27 0.7 33.2
14:45 1018 30.06 847 25.01 19.7 67.4 28 0.7 33.2
14:50 1018 30.06 847 25.01 19.7 67.5 27 0.1 32.2
14:55 1018 30.06 847 25.01 20.8 69.4 25 0 32
15:00 1018 30.06 847 25.01 21.1 69.9 25 0.4 32.6
15:05 1018 30.06 847 25.01 20.8 69.4 27 1.2 34.1
15:10 1018 30.06 847 25.01 20.5 68.9 26 0.5 33
15:15 1018 30.06 847 25.01 20.2 68.3 27 0.9 33.5
15:20 1018 30.06 847 25.01 20.1 68.2 26 0.3 32.5
15:25 1018 30.06 847 25.01 21 69.7 24 -0 32
15:30 1018 30.06 847 25.01 22.2 71.9 22 -0.2 31.7
15:35 1018 30.06 847 25.01 22.9 73.2 24 1.3 34.3
15:40 1018 30.06 847 25.01 23.4 74.1 22 0.8 33.5
15:45 1018 30.06 847 25.01 22.5 72.4 24 1.1 33.9
15:50 1018 30.06 847 25.01 21.6 70.8 21 -1.2 29.9
15:55 1018 30.06 847 25.01 21.6 70.9 20 -2 28.4
16:00 1018 30.06 848 25.04 20.9 69.6 22 -1.7 28.9
16:05 1018 30.06 848 25.04 20.4 68.7 23 -1.5 29.2
16:10 1018 30.06 847 25.01 20.3 68.5 23 -1.6 29.2
16:15 1018 30.06 847 25.01 20.1 68.2 23 -1.5 29.2
16:20 1018 30.06 847 25.01 19.8 67.7 23 -1.6 29.2
16:25 1018 30.06 847 25.01 19.5 67.1 25 -1 30.2
16:30 1018 30.06 847 25.01 19.1 66.4 25 -1 30.2
16:35 1018 30.06 847 25.01 18.8 65.8 25 -1.4 29.5
16:40 1018 30.06 847 25.01 18.6 65.4 26 -1.1 30
16:45 1018 30.06 847 25.01 18.4 65.2 26 -1.2 29.9
16:50 1018 30.06 847 25.01 18.2 64.8 26 -1.3 29.7
16:55 1018 30.06 847 25.01 18.1 64.6 27 -1 30.3
17:00 1018 30.06 847 25.01 18 64.4 27 -1.3 29.7
17:05 1018 30.06 847 25.01 18 64.3 27 -1.4 29.5
17:10 1018 30.06 847 25.01 17.9 64.3 27 -1 30.1
17:15 1018 30.06 847 25.01 17.9 64.3 28 -1 30.3
17:20 1018 30.06 847 25.01 17.9 64.2 27 -1.3 29.6
17:25 1018 30.06 848 25.04 18 64.4 27 -1 30.1
17:30 1018 30.06 848 25.04 18.1 64.7 26 -1.4 29.4
17:35 1018 30.06 848 25.04 18.2 64.8 26 -1.5 29.2
17:40 1018 30.06 848 25.04 18.2 64.7 27 -1.2 29.8
17:45 1018 30.06 847 25.01 18 64.3 28 -0.7 30.7
17:50 1018 30.06 847 25.01 17.7 63.9 28 -0.9 30.4
17:55 1018 30.06 847 25.01 17.3 63.2 29 -1 30.3
18:00 1018 30.06 847 25.01 17.1 62.7 29 -1 30.2
18:05 1018 30.06 847 25.01 17.2 62.9 29 -1 30.1
18:10 1018 30.06 847 25.01 17.6 63.6 28 -1.1 30.1
18:15 1017 30.03 847 25.01 18 64.5 27 -1 30.2
18:20 1017 30.03 846 24.98 18.2 64.8 27 -0.9 30.3
18:25 1017 30.03 846 24.98 18.3 64.9 27 -0.8 30.5
18:30 1017 30.03 847 25.01 18.3 64.9 27 -0.8 30.6
18:35 1018 30.06 847 25.01 18.3 64.9 28 -0.5 31.1
18:40 1018 30.06 847 25.01 18.1 64.5 29 0 32.1
18:45 1018 30.06 847 25.01 17.9 64.3 29 -0.3 31.5
18:50 1018 30.06 847 25.01 17.9 64.2 30 0 32
18:55 1018 30.06 847 25.01 17.8 64 30 0.2 32.4
19:00 1017 30.03 847 25.01 17.7 63.9 31 0.4 32.7
19:05 1017 30.03 846 24.98 17.6 63.6 31 0.5 32.8
19:10 1017 30.03 846 24.98 17.4 63.3 32 0.8 33.5
19:15 1017 30.03 846 24.98 17.3 63.1 33 0.8 33.5
19:20 1017 30.03 846 24.98 17.2 63 33 0.9 33.6
19:25 1017 30.03 846 24.98 17.2 62.9 33 0.8 33.5
19:30 1017 30.03 846 24.98 17.2 63 33 0.9 33.6
19:35 1017 30.03 846 24.98 17.3 63.1 32 0.7 33.3
19:40 1017 30.03 846 24.98 17.4 63.3 32 0.8 33.5
19:45 1017 30.03 846 24.98 17.5 63.5 32 0.7 33.3
19:50 1017 30.03 846 24.98 17.7 63.8 32 0.7 33.3
19:55 1017 30.03 846 24.98 17.8 64 31 0.8 33.4
20:00 1017 30.03 846 24.98 17.8 64.1 31 0.7 33.3
20:05 1017 30.03 846 24.98 18 64.3 31 0.8 33.4
20:10 1017 30.03 846 24.98 18 64.4 31 0.7 33.2
20:15 1017 30.03 846 24.98 17.9 64.1 31 0.7 33.2
20:20 1017 30.03 846 24.98 17.7 63.9 31 0.5 33
20:25 1017 30.03 847 25.01 17.7 63.8 30 0.1 32.2
20:30 1017 30.03 847 25.01 17.8 64 30 0.3 32.5
20:35 1018 30.06 847 25.01 17.7 63.9 30 -0.2 31.7
20:40 1018 30.06 847 25.01 17.5 63.6 31 0.4 32.7
20:45 1018 30.06 847 25.01 17.3 63.2 33 1 33.9
20:50 1018 30.06 847 25.01 17.1 62.7 34 1.2 34.2
20:55 1018 30.06 847 25.01 16.8 62.3 34 1.2 34.1
21:00 1018 30.06 847 25.01 16.6 61.9 35 1.2 34.1
21:05 1018 30.06 847 25.01 16.4 61.6 36 1.3 34.3
21:10 1018 30.06 847 25.01 16.3 61.3 36 1.2 34.2
21:15 1018 30.06 847 25.01 16.1 61 36 1.2 34.2
21:20 1018 30.06 847 25.01 16.1 61.1 36 1.3 34.3
21:25 1018 30.06 847 25.01 16.1 61 36 1.1 33.9
21:30 1017 30.03 847 25.01 16.1 61.1 35 0.9 33.6
21:35 1017 30.03 847 25.01 16.2 61.2 35 1 33.8
21:40 1017 30.03 846 24.98 16.2 61.1 35 1 33.8
21:45 1017 30.03 846 24.98 16.1 61 36 1.2 34.1
21:50 1017 30.03 846 24.98 16 60.8 36 1.1 34.1
21:55 1017 30.03 846 24.98 16 60.8 36 1.1 33.9
22:00 1017 30.03 846 24.98 16 60.8 36 1.1 34
22:05 1017 30.03 846 24.98 15.9 60.7 37 1.3 34.4
22:10 1017 30.03 846 24.98 15.8 60.4 37 1.4 34.4
22:15 1017 30.03 846 24.98 15.7 60.2 38 1.4 34.6
22:20 1017 30.03 846 24.98 15.6 60 38 1.4 34.5
22:25 1017 30.03 846 24.98 15.5 60 38 1.3 34.3
22:30 1017 30.03 846 24.98 15.5 60 38 1.4 34.6
22:35 1017 30.03 846 24.98 15.4 59.8 38 1.3 34.4
22:40 1017 30.03 846 24.98 15.3 59.6 38 1.3 34.3
22:45 1017 30.03 846 24.98 15.2 59.3 38 1.2 34.1
22:50 1017 30.03 847 25.01 15.1 59.2 38 1.1 33.9
22:55 1017 30.03 847 25.01 15.1 59.2 38 1.1 34
23:00 1018 30.06 847 25.01 15 59 39 1.2 34.1
23:05 1018 30.06 847 25.01 14.9 58.8 39 1.3 34.3
23:10 1018 30.06 847 25.01 14.8 58.6 40 1.4 34.6
23:15 1018 30.06 847 25.01 14.7 58.4 40 1.2 34.2
23:20 1018 30.06 847 25.01 14.7 58.4 40 1.2 34.2
23:25 1018 30.06 847 25.01 14.6 58.3 40 1.4 34.4
23:30 1018 30.06 847 25.01 14.5 58.1 40 1.3 34.4
23:35 1018 30.06 847 25.01 14.4 57.9 41 1.3 34.4
23:40 1018 30.06 847 25.01 14.2 57.5 42 1.4 34.6
23:45 1018 30.06 847 25.01 14 57.1 42 1.4 34.5
23:50 1018 30.06 847 25.01 13.8 56.8 43 1.6 34.8
23:55 1018 30.06 847 25.01 13.6 56.4 44 1.5 34.7
24:00 1018 30.06 847 25.01 13.5 56.4 43 1.4 34.6